Lynchburg, VA

03:05 EDT le 06 juillet 2015 (GMT -0400)
Concord Turnpike | | Change Station
CLOSE
Current Station
Stations météorologiques personnelles
Location: Lynchburg, VA
Altitude: 543 ft
Stations météo à proximité

Alt. 543 ft 37.40 °N, 79.11 °W | Updated 32 seconds ago

Nuageux
Nuageux
70.7 ° F
Paraît 70.7 ° F
N
2.6
Vent Variable Vent de Est
Gusts 4.6 mph

Aujourd'hui
Haut(e) -- | Bas -- ° F
--% Risque de précip.
Hier
Haut(e) -- | Bas -- ° F
Precip. -- pouce
6:01 AM 8:40 PM
Lune gibbeuse décroissante, 78% visible
Pression 30.08 pouce
Visibilité 10.0 Miles terrestres
Nuages Couvert 500 ft
Point de rosée 68 ° F
Humidité 90%
Précipitations 0.00 pouce
Profondeur de la couche neigeuse Non disponible.
UV 0 sur 12
Pollen .90 sur 12
Qualité de l'air Non disponible.
Flu Activity Non disponible.
METAR KLYH 060654Z AUTO 13003KT 10SM OVC005 21/20 A3011 RMK AO2 SLP186 T02060200

More Conditions Fewer Conditions

Pression 30.08 pouce
Visibilité 10.0 Miles terrestres
Nuages Couvert 500 ft
Point de rosée 68 ° F
Humidité 90%
Précipitations 0.00 pouce
Profondeur de la couche neigeuse Non disponible.
UV 0 sur 12
Pollen .90 sur 12
Qualité de l'air Non disponible.
Flu Activity Non disponible.
METAR KLYH 060654Z AUTO 13003KT 10SM OVC005 21/20 A3011 RMK AO2 SLP186 T02060200

More Conditions Fewer Conditions

10-Day Weather Forecast

×

Almanac

Astronomie

Jul. 06, 2015 Lever Coucher
Temps réel
Crépuscule civil
Crépuscule nautique
Crépuscule astronomique
Lune
Durée de lumière visible
Longueur du jour
Tomorrow will be .
, % of the Moon is Illuminated

Extrêmes aujourd'hui

State Highs State Lows

Community

WunderPhotos

Upload Photos

1,835,503 Photos téléchargées !

WunderBlogs® & News

Nearby

Qualité de l'air

  Qualité de l'air Indice de la qualité de l'air Polluant
Not available.

Épaisseur de neige

Station Depth Altitude

Activité sismique

Ville Distance Mag. Time & Date
Minimum magnitude displayed is 2.5.

Températures des eaux côtières

Lieu Température

Stations

Stations météo à proximité

Emplacement de la station Température Refroidissement éolien Point de rosée Humidité Vent Precip. Alt. Mise à jour Type